sensor_id;sensor_type;location;lat;lon;timestamp;P1;durP1;ratioP1;P2;durP2;ratioP2
72198;SDS011;72266;51.056;16.880;2023-11-19T00:00:43;27.80;;;12.30;;
72198;SDS011;72266;51.056;16.880;2023-11-19T00:03:42;34.40;;;13.80;;
72198;SDS011;72266;51.056;16.880;2023-11-19T00:06:18;26.10;;;11.60;;
72198;SDS011;72266;51.056;16.880;2023-11-19T00:08:51;33.20;;;14.70;;
72198;SDS011;72266;51.056;16.880;2023-11-19T00:11:24;32.10;;;14.40;;
72198;SDS011;72266;51.056;16.880;2023-11-19T00:13:57;22.90;;;9.20;;
72198;SDS011;72266;51.056;16.880;2023-11-19T00:16:30;35.70;;;14.60;;
72198;SDS011;72266;51.056;16.880;2023-11-19T00:19:03;27.80;;;10.70;;
72198;SDS011;72266;51.056;16.880;2023-11-19T00:21:38;36.40;;;14.30;;
72198;SDS011;72266;51.056;16.880;2023-11-19T00:24:11;30.00;;;12.00;;
72198;SDS011;72266;51.056;16.880;2023-11-19T00:26:46;31.80;;;12.20;;
72198;SDS011;72266;51.056;16.880;2023-11-19T00:29:19;28.50;;;11.00;;
72198;SDS011;72266;51.056;16.880;2023-11-19T00:31:52;28.60;;;12.40;;
72198;SDS011;72266;51.056;16.880;2023-11-19T00:34:26;31.60;;;11.90;;
72198;SDS011;72266;51.056;16.880;2023-11-19T00:36:59;30.20;;;11.80;;
72198;SDS011;72266;51.056;16.880;2023-11-19T00:39:33;30.70;;;11.50;;
72198;SDS011;72266;51.056;16.880;2023-11-19T00:42:06;29.70;;;12.10;;
72198;SDS011;72266;51.056;16.880;2023-11-19T00:44:40;28.70;;;12.30;;
72198;SDS011;72266;51.056;16.880;2023-11-19T00:47:20;29.10;;;12.10;;
72198;SDS011;72266;51.056;16.880;2023-11-19T00:49:53;29.70;;;12.70;;
72198;SDS011;72266;51.056;16.880;2023-11-19T00:52:26;25.90;;;10.40;;
72198;SDS011;72266;51.056;16.880;2023-11-19T00:54:59;29.60;;;12.90;;
72198;SDS011;72266;51.056;16.880;2023-11-19T00:57:33;27.40;;;11.00;;
72198;SDS011;72266;51.056;16.880;2023-11-19T01:00:06;33.90;;;14.40;;
72198;SDS011;72266;51.056;16.880;2023-11-19T01:02:49;19.00;;;7.10;;
72198;SDS011;72266;51.056;16.880;2023-11-19T01:05:23;25.10;;;10.10;;
72198;SDS011;72266;51.056;16.880;2023-11-19T01:07:56;27.00;;;11.50;;
72198;SDS011;72266;51.056;16.880;2023-11-19T01:10:29;24.70;;;9.40;;
72198;SDS011;72266;51.056;16.880;2023-11-19T01:13:03;26.80;;;11.20;;
72198;SDS011;72266;51.056;16.880;2023-11-19T01:15:37;31.40;;;14.60;;
72198;SDS011;72266;51.056;16.880;2023-11-19T01:18:11;30.30;;;12.60;;
72198;SDS011;72266;51.056;16.880;2023-11-19T01:20:44;34.70;;;14.60;;
72198;SDS011;72266;51.056;16.880;2023-11-19T01:23:17;33.40;;;14.50;;
72198;SDS011;72266;51.056;16.880;2023-11-19T01:25:50;32.40;;;13.30;;
72198;SDS011;72266;51.056;16.880;2023-11-19T01:28:23;27.40;;;10.70;;
72198;SDS011;72266;51.056;16.880;2023-11-19T01:30:56;28.00;;;11.10;;
72198;SDS011;72266;51.056;16.880;2023-11-19T01:33:29;26.80;;;11.20;;
72198;SDS011;72266;51.056;16.880;2023-11-19T01:36:03;31.70;;;14.10;;
72198;SDS011;72266;51.056;16.880;2023-11-19T01:38:37;34.90;;;14.30;;
72198;SDS011;72266;51.056;16.880;2023-11-19T01:41:10;27.10;;;11.30;;
72198;SDS011;72266;51.056;16.880;2023-11-19T01:43:43;35.50;;;15.50;;
72198;SDS011;72266;51.056;16.880;2023-11-19T01:46:17;33.80;;;14.70;;
72198;SDS011;72266;51.056;16.880;2023-11-19T01:48:50;37.40;;;15.50;;
72198;SDS011;72266;51.056;16.880;2023-11-19T01:51:24;30.10;;;12.10;;
72198;SDS011;72266;51.056;16.880;2023-11-19T01:53:57;26.50;;;10.20;;
72198;SDS011;72266;51.056;16.880;2023-11-19T01:56:30;30.60;;;13.00;;
72198;SDS011;72266;51.056;16.880;2023-11-19T01:59:04;33.80;;;14.20;;
72198;SDS011;72266;51.056;16.880;2023-11-19T02:01:37;29.70;;;12.10;;
72198;SDS011;72266;51.056;16.880;2023-11-19T02:04:10;32.40;;;13.50;;
72198;SDS011;72266;51.056;16.880;2023-11-19T02:06:44;24.70;;;10.10;;
72198;SDS011;72266;51.056;16.880;2023-11-19T02:09:18;33.30;;;13.20;;
72198;SDS011;72266;51.056;16.880;2023-11-19T02:11:52;32.40;;;12.20;;
72198;SDS011;72266;51.056;16.880;2023-11-19T02:14:25;29.40;;;12.10;;
72198;SDS011;72266;51.056;16.880;2023-11-19T02:16:58;26.70;;;10.80;;
72198;SDS011;72266;51.056;16.880;2023-11-19T02:19:33;27.50;;;10.80;;
72198;SDS011;72266;51.056;16.880;2023-11-19T02:22:07;26.00;;;10.10;;
72198;SDS011;72266;51.056;16.880;2023-11-19T02:24:41;31.00;;;12.60;;
72198;SDS011;72266;51.056;16.880;2023-11-19T02:27:15;24.70;;;10.20;;
72198;SDS011;72266;51.056;16.880;2023-11-19T02:29:54;32.30;;;13.00;;
72198;SDS011;72266;51.056;16.880;2023-11-19T02:32:28;26.90;;;11.80;;
72198;SDS011;72266;51.056;16.880;2023-11-19T02:35:01;30.90;;;12.00;;
72198;SDS011;72266;51.056;16.880;2023-11-19T02:37:37;35.00;;;14.10;;
72198;SDS011;72266;51.056;16.880;2023-11-19T02:40:11;31.80;;;12.80;;
72198;SDS011;72266;51.056;16.880;2023-11-19T02:42:44;32.50;;;14.00;;
72198;SDS011;72266;51.056;16.880;2023-11-19T02:45:17;27.10;;;10.40;;
72198;SDS011;72266;51.056;16.880;2023-11-19T02:47:52;32.30;;;12.80;;
72198;SDS011;72266;51.056;16.880;2023-11-19T02:50:25;30.50;;;11.60;;
72198;SDS011;72266;51.056;16.880;2023-11-19T02:52:59;29.00;;;11.10;;
72198;SDS011;72266;51.056;16.880;2023-11-19T02:55:32;24.90;;;9.80;;
72198;SDS011;72266;51.056;16.880;2023-11-19T02:58:08;30.10;;;12.60;;
72198;SDS011;72266;51.056;16.880;2023-11-19T03:00:50;28.70;;;11.80;;
72198;SDS011;72266;51.056;16.880;2023-11-19T03:03:28;30.20;;;12.40;;
72198;SDS011;72266;51.056;16.880;2023-11-19T03:06:08;28.50;;;13.20;;
72198;SDS011;72266;51.056;16.880;2023-11-19T03:08:41;29.00;;;10.80;;
72198;SDS011;72266;51.056;16.880;2023-11-19T03:11:14;26.50;;;10.70;;
72198;SDS011;72266;51.056;16.880;2023-11-19T03:13:47;30.70;;;12.00;;
72198;SDS011;72266;51.056;16.880;2023-11-19T03:16:21;27.40;;;10.90;;
72198;SDS011;72266;51.056;16.880;2023-11-19T03:18:54;28.20;;;10.60;;
72198;SDS011;72266;51.056;16.880;2023-11-19T03:21:30;31.70;;;12.30;;
72198;SDS011;72266;51.056;16.880;2023-11-19T03:24:04;28.70;;;10.70;;
72198;SDS011;72266;51.056;16.880;2023-11-19T03:26:38;24.30;;;10.20;;
72198;SDS011;72266;51.056;16.880;2023-11-19T03:29:12;27.80;;;11.40;;
72198;SDS011;72266;51.056;16.880;2023-11-19T03:31:45;32.40;;;13.10;;
72198;SDS011;72266;51.056;16.880;2023-11-19T03:34:20;24.20;;;8.90;;
72198;SDS011;72266;51.056;16.880;2023-11-19T03:36:53;26.40;;;11.00;;
72198;SDS011;72266;51.056;16.880;2023-11-19T03:39:26;30.60;;;12.60;;
72198;SDS011;72266;51.056;16.880;2023-11-19T03:42:02;32.00;;;13.10;;
72198;SDS011;72266;51.056;16.880;2023-11-19T03:44:38;30.00;;;11.30;;
72198;SDS011;72266;51.056;16.880;2023-11-19T03:47:11;27.00;;;11.40;;
72198;SDS011;72266;51.056;16.880;2023-11-19T03:49:48;27.60;;;11.30;;
72198;SDS011;72266;51.056;16.880;2023-11-19T03:52:21;26.20;;;11.00;;
72198;SDS011;72266;51.056;16.880;2023-11-19T03:54:57;29.00;;;11.90;;
72198;SDS011;72266;51.056;16.880;2023-11-19T03:57:31;27.30;;;11.00;;
72198;SDS011;72266;51.056;16.880;2023-11-19T04:00:04;26.90;;;11.80;;
72198;SDS011;72266;51.056;16.880;2023-11-19T04:02:43;28.60;;;11.70;;
72198;SDS011;72266;51.056;16.880;2023-11-19T04:05:17;28.20;;;11.90;;
72198;SDS011;72266;51.056;16.880;2023-11-19T04:07:50;29.90;;;13.10;;
72198;SDS011;72266;51.056;16.880;2023-11-19T04:10:23;23.30;;;8.60;;
72198;SDS011;72266;51.056;16.880;2023-11-19T04:12:58;29.30;;;11.40;;
72198;SDS011;72266;51.056;16.880;2023-11-19T04:15:32;23.50;;;9.40;;
72198;SDS011;72266;51.056;16.880;2023-11-19T04:18:05;25.30;;;10.30;;
72198;SDS011;72266;51.056;16.880;2023-11-19T04:20:38;28.90;;;11.90;;
72198;SDS011;72266;51.056;16.880;2023-11-19T04:23:12;26.60;;;10.80;;
72198;SDS011;72266;51.056;16.880;2023-11-19T04:25:45;27.30;;;11.10;;
72198;SDS011;72266;51.056;16.880;2023-11-19T04:28:18;21.50;;;9.10;;
72198;SDS011;72266;51.056;16.880;2023-11-19T04:30:52;25.60;;;10.00;;
72198;SDS011;72266;51.056;16.880;2023-11-19T04:33:27;25.10;;;10.50;;
72198;SDS011;72266;51.056;16.880;2023-11-19T04:36:00;19.70;;;8.10;;
72198;SDS011;72266;51.056;16.880;2023-11-19T04:38:33;24.40;;;9.70;;
72198;SDS011;72266;51.056;16.880;2023-11-19T04:41:08;24.10;;;9.40;;
72198;SDS011;72266;51.056;16.880;2023-11-19T04:43:41;22.70;;;9.80;;
72198;SDS011;72266;51.056;16.880;2023-11-19T04:46:14;21.90;;;9.50;;
72198;SDS011;72266;51.056;16.880;2023-11-19T04:48:47;25.00;;;9.90;;
72198;SDS011;72266;51.056;16.880;2023-11-19T04:51:20;22.30;;;9.10;;
72198;SDS011;72266;51.056;16.880;2023-11-19T04:53:53;25.50;;;9.70;;
72198;SDS011;72266;51.056;16.880;2023-11-19T04:56:26;23.30;;;9.50;;
72198;SDS011;72266;51.056;16.880;2023-11-19T04:58:59;21.20;;;8.50;;
72198;SDS011;72266;51.056;16.880;2023-11-19T05:01:32;23.20;;;9.90;;
72198;SDS011;72266;51.056;16.880;2023-11-19T05:04:06;23.80;;;10.00;;
72198;SDS011;72266;51.056;16.880;2023-11-19T05:06:40;22.10;;;8.40;;
72198;SDS011;72266;51.056;16.880;2023-11-19T05:09:13;20.40;;;8.10;;
72198;SDS011;72266;51.056;16.880;2023-11-19T05:11:46;22.70;;;9.30;;
72198;SDS011;72266;51.056;16.880;2023-11-19T05:14:21;19.30;;;7.30;;
72198;SDS011;72266;51.056;16.880;2023-11-19T05:16:54;17.40;;;7.80;;
72198;SDS011;72266;51.056;16.880;2023-11-19T05:19:27;16.40;;;6.30;;
72198;SDS011;72266;51.056;16.880;2023-11-19T05:22:00;19.40;;;8.20;;
72198;SDS011;72266;51.056;16.880;2023-11-19T05:24:33;21.00;;;8.20;;
72198;SDS011;72266;51.056;16.880;2023-11-19T05:27:06;19.50;;;8.00;;
72198;SDS011;72266;51.056;16.880;2023-11-19T05:29:41;18.40;;;7.30;;
72198;SDS011;72266;51.056;16.880;2023-11-19T05:32:14;20.00;;;7.40;;
72198;SDS011;72266;51.056;16.880;2023-11-19T05:34:47;18.70;;;7.50;;
72198;SDS011;72266;51.056;16.880;2023-11-19T05:37:21;18.10;;;7.30;;
72198;SDS011;72266;51.056;16.880;2023-11-19T05:39:55;18.60;;;7.20;;
72198;SDS011;72266;51.056;16.880;2023-11-19T05:42:29;19.70;;;7.70;;
72198;SDS011;72266;51.056;16.880;2023-11-19T05:45:03;17.20;;;6.70;;
72198;SDS011;72266;51.056;16.880;2023-11-19T05:47:37;19.30;;;8.10;;
72198;SDS011;72266;51.056;16.880;2023-11-19T05:50:12;17.90;;;7.00;;
72198;SDS011;72266;51.056;16.880;2023-11-19T05:52:46;16.00;;;6.60;;
72198;SDS011;72266;51.056;16.880;2023-11-19T05:55:19;16.90;;;7.40;;
72198;SDS011;72266;51.056;16.880;2023-11-19T05:57:54;14.20;;;6.00;;
72198;SDS011;72266;51.056;16.880;2023-11-19T06:00:27;14.70;;;6.40;;
72198;SDS011;72266;51.056;16.880;2023-11-19T06:03:01;15.90;;;6.90;;
72198;SDS011;72266;51.056;16.880;2023-11-19T06:05:34;15.40;;;6.20;;
72198;SDS011;72266;51.056;16.880;2023-11-19T06:08:07;13.30;;;5.50;;
72198;SDS011;72266;51.056;16.880;2023-11-19T06:10:41;13.90;;;6.00;;
72198;SDS011;72266;51.056;16.880;2023-11-19T06:13:16;15.00;;;5.50;;
72198;SDS011;72266;51.056;16.880;2023-11-19T06:15:53;14.30;;;6.10;;
72198;SDS011;72266;51.056;16.880;2023-11-19T06:18:26;14.00;;;5.70;;
72198;SDS011;72266;51.056;16.880;2023-11-19T06:21:01;14.00;;;5.10;;
72198;SDS011;72266;51.056;16.880;2023-11-19T06:23:34;14.00;;;4.80;;
72198;SDS011;72266;51.056;16.880;2023-11-19T06:26:08;15.20;;;6.40;;
72198;SDS011;72266;51.056;16.880;2023-11-19T06:28:41;12.40;;;4.70;;
72198;SDS011;72266;51.056;16.880;2023-11-19T06:31:14;13.20;;;5.80;;
72198;SDS011;72266;51.056;16.880;2023-11-19T06:33:47;10.10;;;3.60;;
72198;SDS011;72266;51.056;16.880;2023-11-19T06:36:21;12.80;;;5.70;;
72198;SDS011;72266;51.056;16.880;2023-11-19T06:38:54;14.00;;;5.30;;
72198;SDS011;72266;51.056;16.880;2023-11-19T06:41:27;12.50;;;5.80;;
72198;SDS011;72266;51.056;16.880;2023-11-19T06:43:59;14.00;;;5.70;;
72198;SDS011;72266;51.056;16.880;2023-11-19T06:46:34;13.80;;;5.80;;
72198;SDS011;72266;51.056;16.880;2023-11-19T06:49:10;15.30;;;5.80;;
72198;SDS011;72266;51.056;16.880;2023-11-19T06:51:43;13.50;;;5.70;;
72198;SDS011;72266;51.056;16.880;2023-11-19T06:54:16;13.40;;;5.50;;
72198;SDS011;72266;51.056;16.880;2023-11-19T06:56:50;16.10;;;6.40;;
72198;SDS011;72266;51.056;16.880;2023-11-19T06:59:23;15.30;;;6.10;;
72198;SDS011;72266;51.056;16.880;2023-11-19T07:01:56;14.40;;;6.10;;
72198;SDS011;72266;51.056;16.880;2023-11-19T07:04:29;14.90;;;6.10;;
72198;SDS011;72266;51.056;16.880;2023-11-19T07:07:02;15.40;;;5.50;;
72198;SDS011;72266;51.056;16.880;2023-11-19T07:09:36;13.50;;;5.70;;
72198;SDS011;72266;51.056;16.880;2023-11-19T07:12:09;12.70;;;5.50;;
72198;SDS011;72266;51.056;16.880;2023-11-19T07:14:44;12.10;;;5.50;;
72198;SDS011;72266;51.056;16.880;2023-11-19T07:17:17;12.80;;;5.40;;
72198;SDS011;72266;51.056;16.880;2023-11-19T07:19:51;29.00;;;12.10;;
72198;SDS011;72266;51.056;16.880;2023-11-19T07:22:25;63.10;;;22.40;;
72198;SDS011;72266;51.056;16.880;2023-11-19T07:24:59;75.80;;;26.40;;
72198;SDS011;72266;51.056;16.880;2023-11-19T07:27:32;44.70;;;17.20;;
72198;SDS011;72266;51.056;16.880;2023-11-19T07:30:07;39.80;;;17.20;;
72198;SDS011;72266;51.056;16.880;2023-11-19T07:32:40;26.90;;;13.30;;
72198;SDS011;72266;51.056;16.880;2023-11-19T07:35:14;20.80;;;12.40;;
72198;SDS011;72266;51.056;16.880;2023-11-19T07:37:48;13.50;;;7.60;;
72198;SDS011;72266;51.056;16.880;2023-11-19T07:40:22;12.40;;;5.80;;
72198;SDS011;72266;51.056;16.880;2023-11-19T07:42:57;12.30;;;6.00;;
72198;SDS011;72266;51.056;16.880;2023-11-19T07:45:30;10.70;;;4.50;;
72198;SDS011;72266;51.056;16.880;2023-11-19T07:48:04;12.00;;;5.20;;
72198;SDS011;72266;51.056;16.880;2023-11-19T07:50:37;10.50;;;4.70;;
72198;SDS011;72266;51.056;16.880;2023-11-19T07:53:11;10.60;;;4.30;;
72198;SDS011;72266;51.056;16.880;2023-11-19T07:55:44;13.30;;;5.20;;
72198;SDS011;72266;51.056;16.880;2023-11-19T07:58:17;11.60;;;5.40;;
72198;SDS011;72266;51.056;16.880;2023-11-19T08:00:50;11.80;;;5.30;;
72198;SDS011;72266;51.056;16.880;2023-11-19T08:03:23;10.70;;;4.20;;
72198;SDS011;72266;51.056;16.880;2023-11-19T08:05:57;14.20;;;5.70;;
72198;SDS011;72266;51.056;16.880;2023-11-19T08:08:31;13.60;;;5.50;;
72198;SDS011;72266;51.056;16.880;2023-11-19T08:11:05;9.10;;;3.70;;
72198;SDS011;72266;51.056;16.880;2023-11-19T08:13:38;10.20;;;4.50;;
72198;SDS011;72266;51.056;16.880;2023-11-19T08:16:11;11.80;;;5.00;;
72198;SDS011;72266;51.056;16.880;2023-11-19T08:18:45;11.80;;;4.80;;
72198;SDS011;72266;51.056;16.880;2023-11-19T08:21:18;11.30;;;4.50;;
72198;SDS011;72266;51.056;16.880;2023-11-19T08:23:52;12.20;;;5.40;;
72198;SDS011;72266;51.056;16.880;2023-11-19T08:26:25;11.80;;;5.10;;
72198;SDS011;72266;51.056;16.880;2023-11-19T08:28:59;12.30;;;4.80;;
72198;SDS011;72266;51.056;16.880;2023-11-19T08:31:32;16.40;;;5.90;;
72198;SDS011;72266;51.056;16.880;2023-11-19T08:34:05;18.90;;;7.20;;
72198;SDS011;72266;51.056;16.880;2023-11-19T08:36:39;19.80;;;7.50;;
72198;SDS011;72266;51.056;16.880;2023-11-19T08:39:12;16.60;;;6.20;;
72198;SDS011;72266;51.056;16.880;2023-11-19T08:41:47;18.00;;;7.60;;
72198;SDS011;72266;51.056;16.880;2023-11-19T08:44:20;15.40;;;6.50;;
72198;SDS011;72266;51.056;16.880;2023-11-19T08:46:54;14.80;;;6.30;;
72198;SDS011;72266;51.056;16.880;2023-11-19T08:49:28;18.30;;;7.10;;
72198;SDS011;72266;51.056;16.880;2023-11-19T08:52:01;16.50;;;7.20;;
72198;SDS011;72266;51.056;16.880;2023-11-19T08:54:34;15.50;;;5.90;;
72198;SDS011;72266;51.056;16.880;2023-11-19T08:57:07;14.60;;;7.00;;
72198;SDS011;72266;51.056;16.880;2023-11-19T08:59:40;17.60;;;7.10;;
72198;SDS011;72266;51.056;16.880;2023-11-19T09:02:15;17.10;;;8.20;;
72198;SDS011;72266;51.056;16.880;2023-11-19T09:04:49;14.20;;;6.40;;
72198;SDS011;72266;51.056;16.880;2023-11-19T09:07:23;16.60;;;6.20;;
72198;SDS011;72266;51.056;16.880;2023-11-19T09:09:57;18.20;;;8.10;;
72198;SDS011;72266;51.056;16.880;2023-11-19T09:12:30;16.90;;;7.00;;
72198;SDS011;72266;51.056;16.880;2023-11-19T09:15:04;13.80;;;6.00;;
72198;SDS011;72266;51.056;16.880;2023-11-19T09:17:40;14.50;;;6.70;;
72198;SDS011;72266;51.056;16.880;2023-11-19T09:20:13;15.10;;;7.10;;
72198;SDS011;72266;51.056;16.880;2023-11-19T09:22:47;15.20;;;6.10;;
72198;SDS011;72266;51.056;16.880;2023-11-19T09:25:21;16.00;;;6.30;;
72198;SDS011;72266;51.056;16.880;2023-11-19T09:27:54;18.90;;;8.30;;
72198;SDS011;72266;51.056;16.880;2023-11-19T09:30:28;16.00;;;6.90;;
72198;SDS011;72266;51.056;16.880;2023-11-19T09:33:04;15.40;;;6.60;;
72198;SDS011;72266;51.056;16.880;2023-11-19T09:35:37;11.90;;;5.00;;
72198;SDS011;72266;51.056;16.880;2023-11-19T09:38:12;19.40;;;6.90;;
72198;SDS011;72266;51.056;16.880;2023-11-19T09:40:45;17.60;;;7.30;;
72198;SDS011;72266;51.056;16.880;2023-11-19T09:43:18;16.30;;;6.00;;
72198;SDS011;72266;51.056;16.880;2023-11-19T09:45:52;11.60;;;4.90;;
72198;SDS011;72266;51.056;16.880;2023-11-19T09:48:27;11.70;;;4.10;;
72198;SDS011;72266;51.056;16.880;2023-11-19T09:51:01;11.80;;;5.10;;
72198;SDS011;72266;51.056;16.880;2023-11-19T09:53:35;18.70;;;7.30;;
72198;SDS011;72266;51.056;16.880;2023-11-19T09:56:09;18.50;;;7.80;;
72198;SDS011;72266;51.056;16.880;2023-11-19T09:58:44;14.10;;;5.70;;
72198;SDS011;72266;51.056;16.880;2023-11-19T10:01:17;20.40;;;8.30;;
72198;SDS011;72266;51.056;16.880;2023-11-19T10:03:57;14.40;;;5.30;;
72198;SDS011;72266;51.056;16.880;2023-11-19T10:06:31;13.30;;;6.00;;
72198;SDS011;72266;51.056;16.880;2023-11-19T10:09:05;13.40;;;5.90;;
72198;SDS011;72266;51.056;16.880;2023-11-19T10:11:38;9.30;;;3.50;;
72198;SDS011;72266;51.056;16.880;2023-11-19T10:14:11;11.00;;;4.80;;
72198;SDS011;72266;51.056;16.880;2023-11-19T10:16:46;12.50;;;5.20;;
72198;SDS011;72266;51.056;16.880;2023-11-19T10:19:20;9.80;;;4.00;;
72198;SDS011;72266;51.056;16.880;2023-11-19T10:21:53;10.20;;;4.20;;
72198;SDS011;72266;51.056;16.880;2023-11-19T10:24:32;10.30;;;4.50;;
72198;SDS011;72266;51.056;16.880;2023-11-19T10:27:12;13.50;;;5.00;;
72198;SDS011;72266;51.056;16.880;2023-11-19T10:29:46;20.80;;;8.20;;
72198;SDS011;72266;51.056;16.880;2023-11-19T10:32:19;21.90;;;8.10;;
72198;SDS011;72266;51.056;16.880;2023-11-19T10:35:11;16.10;;;5.90;;
72198;SDS011;72266;51.056;16.880;2023-11-19T10:37:44;34.10;;;10.80;;
72198;SDS011;72266;51.056;16.880;2023-11-19T10:40:18;36.30;;;10.90;;
72198;SDS011;72266;51.056;16.880;2023-11-19T10:42:54;40.50;;;13.10;;
72198;SDS011;72266;51.056;16.880;2023-11-19T10:45:35;49.10;;;14.70;;
72198;SDS011;72266;51.056;16.880;2023-11-19T10:48:09;44.80;;;12.50;;
72198;SDS011;72266;51.056;16.880;2023-11-19T10:50:43;42.10;;;10.80;;
72198;SDS011;72266;51.056;16.880;2023-11-19T10:53:17;64.70;;;15.10;;
72198;SDS011;72266;51.056;16.880;2023-11-19T10:55:51;77.80;;;20.00;;
72198;SDS011;72266;51.056;16.880;2023-11-19T10:58:27;67.30;;;18.70;;
72198;SDS011;72266;51.056;16.880;2023-11-19T11:01:02;51.90;;;16.10;;
72198;SDS011;72266;51.056;16.880;2023-11-19T11:03:37;53.20;;;14.80;;
72198;SDS011;72266;51.056;16.880;2023-11-19T11:06:12;28.20;;;9.40;;
72198;SDS011;72266;51.056;16.880;2023-11-19T11:08:46;20.60;;;7.80;;
72198;SDS011;72266;51.056;16.880;2023-11-19T11:11:20;19.00;;;7.40;;
72198;SDS011;72266;51.056;16.880;2023-11-19T11:13:57;15.90;;;7.20;;
72198;SDS011;72266;51.056;16.880;2023-11-19T11:16:32;28.70;;;13.60;;
72198;SDS011;72266;51.056;16.880;2023-11-19T11:19:07;30.60;;;12.90;;
72198;SDS011;72266;51.056;16.880;2023-11-19T11:21:41;70.90;;;28.40;;
72198;SDS011;72266;51.056;16.880;2023-11-19T11:24:27;53.50;;;21.10;;
72198;SDS011;72266;51.056;16.880;2023-11-19T11:27:20;31.50;;;11.50;;
72198;SDS011;72266;51.056;16.880;2023-11-19T11:30:14;19.00;;;6.70;;
72198;SDS011;72266;51.056;16.880;2023-11-19T11:32:59;15.60;;;6.20;;
72198;SDS011;72266;51.056;16.880;2023-11-19T11:35:44;14.80;;;5.80;;
72198;SDS011;72266;51.056;16.880;2023-11-19T11:38:24;12.90;;;5.90;;
72198;SDS011;72266;51.056;16.880;2023-11-19T11:41:17;15.40;;;5.60;;
72198;SDS011;72266;51.056;16.880;2023-11-19T11:43:56;17.30;;;7.30;;
72198;SDS011;72266;51.056;16.880;2023-11-19T11:49:29;16.20;;;8.40;;
72198;SDS011;72266;51.056;16.880;2023-11-19T11:52:36;30.00;;;19.40;;
72198;SDS011;72266;51.056;16.880;2023-11-19T11:55:54;12.70;;;6.80;;
72198;SDS011;72266;51.056;16.880;2023-11-19T11:58:35;20.10;;;8.20;;
72198;SDS011;72266;51.056;16.880;2023-11-19T12:04:00;16.80;;;7.50;;
72198;SDS011;72266;51.056;16.880;2023-11-19T12:09:52;13.40;;;4.70;;
72198;SDS011;72266;51.056;16.880;2023-11-19T12:12:39;14.40;;;5.70;;
72198;SDS011;72266;51.056;16.880;2023-11-19T12:15:14;38.10;;;11.30;;
72198;SDS011;72266;51.056;16.880;2023-11-19T12:17:50;21.10;;;7.90;;
72198;SDS011;72266;51.056;16.880;2023-11-19T12:20:24;18.00;;;7.20;;
72198;SDS011;72266;51.056;16.880;2023-11-19T12:23:04;22.30;;;9.60;;
72198;SDS011;72266;51.056;16.880;2023-11-19T12:25:41;22.90;;;9.40;;
72198;SDS011;72266;51.056;16.880;2023-11-19T12:28:15;36.20;;;15.10;;
72198;SDS011;72266;51.056;16.880;2023-11-19T12:30:50;66.40;;;25.20;;
72198;SDS011;72266;51.056;16.880;2023-11-19T12:33:27;64.40;;;23.60;;
72198;SDS011;72266;51.056;16.880;2023-11-19T12:36:05;67.40;;;23.60;;
72198;SDS011;72266;51.056;16.880;2023-11-19T12:38:41;69.70;;;26.00;;
72198;SDS011;72266;51.056;16.880;2023-11-19T12:41:16;49.80;;;19.90;;
72198;SDS011;72266;51.056;16.880;2023-11-19T12:43:54;45.30;;;16.80;;
72198;SDS011;72266;51.056;16.880;2023-11-19T12:46:33;36.00;;;14.50;;
72198;SDS011;72266;51.056;16.880;2023-11-19T12:49:07;25.80;;;11.50;;
72198;SDS011;72266;51.056;16.880;2023-11-19T12:51:44;15.90;;;7.00;;
72198;SDS011;72266;51.056;16.880;2023-11-19T12:54:18;15.70;;;6.30;;
72198;SDS011;72266;51.056;16.880;2023-11-19T12:56:53;13.00;;;5.30;;
72198;SDS011;72266;51.056;16.880;2023-11-19T12:59:26;12.70;;;5.20;;
72198;SDS011;72266;51.056;16.880;2023-11-19T13:02:04;16.60;;;7.60;;
72198;SDS011;72266;51.056;16.880;2023-11-19T13:04:42;16.50;;;9.00;;
72198;SDS011;72266;51.056;16.880;2023-11-19T13:07:21;15.80;;;9.10;;
72198;SDS011;72266;51.056;16.880;2023-11-19T13:10:03;17.20;;;10.90;;
72198;SDS011;72266;51.056;16.880;2023-11-19T13:12:37;17.10;;;9.10;;
72198;SDS011;72266;51.056;16.880;2023-11-19T13:15:23;19.70;;;10.10;;
72198;SDS011;72266;51.056;16.880;2023-11-19T13:17:58;18.90;;;8.60;;
72198;SDS011;72266;51.056;16.880;2023-11-19T13:20:34;16.70;;;6.60;;
72198;SDS011;72266;51.056;16.880;2023-11-19T13:23:12;10.90;;;3.50;;
72198;SDS011;72266;51.056;16.880;2023-11-19T13:25:50;8.50;;;2.60;;
72198;SDS011;72266;51.056;16.880;2023-11-19T13:28:25;11.10;;;2.80;;
72198;SDS011;72266;51.056;16.880;2023-11-19T13:31:05;8.10;;;2.30;;
72198;SDS011;72266;51.056;16.880;2023-11-19T13:33:41;9.20;;;2.90;;
72198;SDS011;72266;51.056;16.880;2023-11-19T13:36:15;8.20;;;2.60;;
72198;SDS011;72266;51.056;16.880;2023-11-19T13:38:50;10.20;;;2.70;;
72198;SDS011;72266;51.056;16.880;2023-11-19T13:41:30;9.00;;;2.70;;
72198;SDS011;72266;51.056;16.880;2023-11-19T13:44:04;9.30;;;2.50;;
72198;SDS011;72266;51.056;16.880;2023-11-19T13:46:38;9.10;;;2.70;;
72198;SDS011;72266;51.056;16.880;2023-11-19T13:49:13;10.10;;;2.90;;
72198;SDS011;72266;51.056;16.880;2023-11-19T13:51:46;12.40;;;3.20;;
72198;SDS011;72266;51.056;16.880;2023-11-19T13:54:20;13.00;;;3.30;;
72198;SDS011;72266;51.056;16.880;2023-11-19T13:56:56;11.10;;;3.00;;
72198;SDS011;72266;51.056;16.880;2023-11-19T13:59:31;10.50;;;3.00;;
72198;SDS011;72266;51.056;16.880;2023-11-19T14:02:05;11.70;;;3.40;;
72198;SDS011;72266;51.056;16.880;2023-11-19T14:04:38;13.10;;;3.20;;
72198;SDS011;72266;51.056;16.880;2023-11-19T14:07:12;11.00;;;3.30;;
72198;SDS011;72266;51.056;16.880;2023-11-19T14:09:46;10.30;;;3.10;;
72198;SDS011;72266;51.056;16.880;2023-11-19T14:12:21;9.30;;;3.20;;
72198;SDS011;72266;51.056;16.880;2023-11-19T14:14:58;17.60;;;4.70;;
72198;SDS011;72266;51.056;16.880;2023-11-19T14:17:35;14.30;;;4.80;;
72198;SDS011;72266;51.056;16.880;2023-11-19T14:20:10;11.00;;;3.00;;
72198;SDS011;72266;51.056;16.880;2023-11-19T14:22:47;11.30;;;3.30;;
72198;SDS011;72266;51.056;16.880;2023-11-19T14:25:23;11.30;;;3.20;;
72198;SDS011;72266;51.056;16.880;2023-11-19T14:27:58;9.90;;;2.90;;
72198;SDS011;72266;51.056;16.880;2023-11-19T14:30:35;12.20;;;3.40;;
72198;SDS011;72266;51.056;16.880;2023-11-19T14:33:12;10.00;;;3.20;;
72198;SDS011;72266;51.056;16.880;2023-11-19T14:35:47;14.70;;;3.80;;
72198;SDS011;72266;51.056;16.880;2023-11-19T14:38:23;11.60;;;4.10;;
72198;SDS011;72266;51.056;16.880;2023-11-19T14:40:57;10.10;;;3.00;;
72198;SDS011;72266;51.056;16.880;2023-11-19T14:43:33;10.30;;;3.40;;
72198;SDS011;72266;51.056;16.880;2023-11-19T14:46:07;13.80;;;4.00;;
72198;SDS011;72266;51.056;16.880;2023-11-19T14:48:42;14.10;;;3.80;;
72198;SDS011;72266;51.056;16.880;2023-11-19T14:51:17;14.80;;;3.70;;
72198;SDS011;72266;51.056;16.880;2023-11-19T14:53:55;14.10;;;3.90;;
72198;SDS011;72266;51.056;16.880;2023-11-19T14:56:31;13.40;;;4.30;;
72198;SDS011;72266;51.056;16.880;2023-11-19T14:59:09;11.20;;;3.10;;
72198;SDS011;72266;51.056;16.880;2023-11-19T15:01:46;10.90;;;3.10;;
72198;SDS011;72266;51.056;16.880;2023-11-19T15:04:21;11.70;;;3.50;;
72198;SDS011;72266;51.056;16.880;2023-11-19T15:07:01;12.70;;;4.30;;
72198;SDS011;72266;51.056;16.880;2023-11-19T15:09:43;11.70;;;3.40;;